Meteo Giornale » Osservazioni meteo Stati Uniti (USA) » Wichita
ore: 21:53 - Osservazioni Meteo Wichita
Lat. 37° 38' N Lon. 97° 25' W Alt. 406 metri s.l.m.
31 °C
Sereno
Temp. 24 Ore
22 °C
40 °C
Sud/Sud-Est
16.7 Km/h
Dew point 16 °C
Umidità 40 %
Visibilità 10 Km
Il sole sorge alle ore 06:59
Il sole tramonta alle ore 20:00
| Data e Ora | Cielo e Fenomeni | T °C | DP °C | Um. % | Pres. hPa | Vis. km | Vento km/h | |
|---|---|---|---|---|---|---|---|---|
| Oggi h: 21:53 | Sereno | 31 | 16 | 40 | 1014 | 10 | S/SE 16.7 | |
| Oggi h: 20:53 | Poco Nuvoloso | 32 | 16 | 38 | 1013 | 10 | S/SE 16.7 | |
| Oggi h: 19:53 | Poco Nuvoloso | 34 | 15 | 32 | 1012 | 10 | S/SE 18.5 | |
| Oggi h: 18:53 | Poco Nuvoloso | 37 | 13 | 23 | 1012 | 10 | S/SE 22.2 | |
| Oggi h: 17:53 | Poco Nuvoloso | 38 | 12 | 21 | 1012 | 10 | S 25.9 | |
| Oggi h: 16:53 | Poco Nuvoloso | 39 | 12 | 20 | 1012 | 10 | S/SE 29.6 | |
| Oggi h: 15:53 | Poco Nuvoloso | 39 | 12 | 20 | 1013 | 10 | S/SO 18.5 | |
| Oggi h: 14:53 | Poco Nuvoloso | 40 | 14 | 21 | 1014 | 10 | S/SE 33.3 | |
| Oggi h: 13:53 | Poco Nuvoloso | 39 | 14 | 22 | 1014 | 10 | S/SO 29.6 | |
| Oggi h: 12:53 | Nuvoloso | 38 | 16 | 27 | 1015 | 10 | S 24 | |
| Oggi h: 11:53 | Nuvoloso | 36 | 16 | 30 | 1015 | 10 | S 20.3 | |
| Oggi h: 10:53 | Molto Nuvoloso | 34 | 16 | 34 | 1015 | 10 | S/SO 20.3 | |
| Oggi h: 09:53 | Molto Nuvoloso | 32 | 16 | 38 | 1016 | 10 | S 22.2 | |
| Oggi h: 08:53 | Molto Nuvoloso | 28 | 16 | 48 | 1016 | 10 | S 14.8 | |
| Oggi h: 07:53 | Molto Nuvoloso | 24 | 16 | 60 | 1015 | 10 | S/SE 13 | |
| Oggi h: 06:53 | Nuvoloso | 22 | 16 | 68 | 1015 | 10 | S 9.3 | |
| Oggi h: 05:53 | Poco Nuvoloso | 23 | 16 | 64 | 1015 | 10 | N 0 | |
| Oggi h: 04:53 | Sereno | 23 | 16 | 64 | 1014 | 10 | S 13 | |
| Oggi h: 03:53 | Sereno | 24 | 16 | 60 | 1013 | 10 | S 14.8 | |
| Oggi h: 02:53 | Sereno | 26 | 16 | 54 | 1013 | 10 | S 14.8 | |
| Oggi h: 01:53 | Sereno | 28 | 16 | 48 | 1013 | 10 | S 18.5 | |
| Oggi h: 00:53 | Sereno | 30 | 15 | 40 | 1012 | 10 | S 20.3 | |
| Ieri h: 23:53 | Sereno | 30 | 15 | 40 | 1011 | 10 | S 22.2 | |
| Ieri h: 22:53 | Sereno | 31 | 15 | 37 | 1011 | 10 | S/SE 24 | |



